Terminal Aerodrome Forecast
Issued by NWS Pocatello, ID

Home | Current Version | Previous Version | Text Only | Print | Product List | Glossary On
Versions: 1 2 3 4 5 6 7 8 9 10 11 12 13 14 15 16 17 18 19 20 21 22 23
000
FTUS45 KPIH 230228 AAA
TAFIDA
TAF AMD
KIDA 230228Z 2302/2324 18012G22KT 1SM -SN SCT008 BKN015
     FM230400 20011G21KT 2SM -SHSN BKN020 OVC030
     FM230900 19008KT 3SM BR VCSH BKN025 OVC030
     FM231200 34007KT 5SM -SHSN BR SCT008 BKN015
     FM232200 34011KT 2SM -SN BR BKN008 OVC015=

USA.gov is the U.S. government's official web portal to all federal, state and local government web resources and services.